createdAt,value
2019-04-26T00:00:51.068Z,98.00
2019-04-26T00:03:27.047Z,98.00
2019-04-26T00:05:57.646Z,98.20
2019-04-26T00:08:26.627Z,98.30
2019-04-26T00:11:05.029Z,98.40
2019-04-26T00:13:32.689Z,98.50
2019-04-26T00:18:44.707Z,98.30
2019-04-26T00:21:26.887Z,98.40
2019-04-26T00:23:57.538Z,98.60
2019-04-26T00:26:28.076Z,98.70
2019-04-26T00:28:58.247Z,98.80
2019-04-26T00:31:28.422Z,99.00
2019-04-26T00:33:58.476Z,98.80
2019-04-26T00:36:28.755Z,99.00
2019-04-26T00:38:59.014Z,98.90
2019-04-26T00:41:29.484Z,98.90
2019-04-26T00:43:59.765Z,99.30
2019-04-26T00:46:31.255Z,99.10
2019-04-26T00:49:04.084Z,99.20
2019-04-26T00:51:35.723Z,99.30
2019-04-26T00:54:06.131Z,99.40
2019-04-26T00:56:37.217Z,99.40
2019-04-26T00:59:09.418Z,99.50
2019-04-26T01:01:42.397Z,99.50
2019-04-26T01:04:12.728Z,99.30
2019-04-26T01:06:46.083Z,99.30
2019-04-26T01:09:17.375Z,99.50
2019-04-26T01:11:47.700Z,99.60
2019-04-26T01:14:17.916Z,99.70
2019-04-26T01:16:48.093Z,99.60
2019-04-26T01:19:18.665Z,99.70
2019-04-26T01:21:52.704Z,99.60
2019-04-26T01:24:27.274Z,99.40
2019-04-26T01:27:01.356Z,99.50
2019-04-26T01:29:32.237Z,99.60
2019-04-26T01:32:10.418Z,99.50
2019-04-26T01:34:44.275Z,99.50
2019-04-26T01:37:15.395Z,99.90
2019-04-26T01:39:50.947Z,99.90
2019-04-26T01:42:40.637Z,99.90
2019-04-26T01:45:26.215Z,99.90
2019-04-26T01:47:59.531Z,99.80
2019-04-26T01:50:32.202Z,99.90
2019-04-26T01:53:03.311Z,99.90
2019-04-26T01:55:35.142Z,99.70
2019-04-26T02:03:17.102Z,99.90
2019-04-26T02:05:46.887Z,99.90
2019-04-26T02:08:19.168Z,99.90
2019-04-26T02:10:49.450Z,99.90
2019-04-26T02:13:17.093Z,99.80
2019-04-26T02:15:47.137Z,99.50
2019-04-26T02:21:00.965Z,99.90
2019-04-26T02:23:28.637Z,99.90
2019-04-26T02:28:48.151Z,99.90
2019-04-26T02:31:19.562Z,99.90
2019-04-26T02:33:50.092Z,99.90
2019-04-26T02:36:22.029Z,99.90
2019-04-26T02:39:09.719Z,99.70
2019-04-26T02:41:39.858Z,99.80
2019-04-26T02:44:12.853Z,99.90
2019-04-26T02:46:50.539Z,99.90
2019-04-26T02:49:38.426Z,99.90
2019-04-26T02:52:06.316Z,99.90
2019-04-26T02:54:47.942Z,99.90
2019-04-26T02:57:15.678Z,99.90
2019-04-26T02:59:48.721Z,99.90
2019-04-26T03:05:01.396Z,99.90
2019-04-26T03:07:32.151Z,99.90
2019-04-26T03:10:02.810Z,99.90
2019-04-26T03:15:21.251Z,99.90
2019-04-26T03:17:49.022Z,99.90
2019-04-26T03:20:23.571Z,99.90
2019-04-26T03:25:34.728Z,99.90
2019-04-26T03:33:54.521Z,99.90
2019-04-26T03:36:51.473Z,99.90
2019-04-26T03:39:19.124Z,99.90
2019-04-26T03:44:42.264Z,99.90
2019-04-26T03:50:13.863Z,99.90
2019-04-26T03:53:15.280Z,99.90
2019-04-26T04:01:53.816Z,99.90
2019-04-26T04:07:03.659Z,99.90
2019-04-26T04:12:11.000Z,99.90
2019-04-26T04:14:31.220Z,99.90
2019-04-26T04:20:31.472Z,99.90
2019-04-26T04:22:59.215Z,99.90
2019-04-26T04:25:35.178Z,99.90
2019-04-26T04:28:33.861Z,99.90
2019-04-26T04:31:01.620Z,99.90
2019-04-26T04:33:56.226Z,99.90
2019-04-26T04:39:12.973Z,99.90
2019-04-26T04:42:12.667Z,99.90
2019-04-26T04:44:42.381Z,99.90
2019-04-26T04:50:32.164Z,99.90
2019-04-26T04:53:25.641Z,99.90
2019-04-26T04:56:14.495Z,99.90
2019-04-26T05:02:05.736Z,99.90
2019-04-26T05:04:33.496Z,99.90
2019-04-26T05:07:28.255Z,99.90
2019-04-26T05:10:17.295Z,99.90
2019-04-26T05:16:10.743Z,99.90
2019-04-26T05:21:20.214Z,99.90
2019-04-26T05:24:17.598Z,99.90
2019-04-26T05:27:40.664Z,99.90
2019-04-26T05:30:59.921Z,99.90
2019-04-26T05:34:08.534Z,99.90
2019-04-26T05:37:11.932Z,99.90
2019-04-26T05:40:04.542Z,99.90
2019-04-26T05:43:19.703Z,99.90
2019-04-26T05:46:22.823Z,99.90
2019-04-26T05:49:13.931Z,99.90
2019-04-26T05:52:13.639Z,99.90
2019-04-26T05:55:09.188Z,99.90
2019-04-26T05:57:58.499Z,99.90
2019-04-26T06:00:55.693Z,99.70
2019-04-26T06:04:07.145Z,99.50
2019-04-26T06:07:02.933Z,99.40
2019-04-26T06:10:04.734Z,98.80
2019-04-26T06:13:01.450Z,98.70
2019-04-26T06:15:48.028Z,98.60
2019-04-26T06:18:51.799Z,98.40
2019-04-26T06:21:35.898Z,98.30
2019-04-26T06:24:20.237Z,97.70
2019-04-26T06:27:13.610Z,97.10
2019-04-26T06:29:53.547Z,97.10
2019-04-26T06:32:38.289Z,97.00
2019-04-26T06:35:15.854Z,97.20
2019-04-26T06:38:12.499Z,96.90
2019-04-26T06:40:55.916Z,96.70
2019-04-26T06:43:37.583Z,96.10
2019-04-26T06:46:40.386Z,96.10
2019-04-26T06:49:32.098Z,95.30
2019-04-26T08:09:59.541Z,88.20
2019-04-26T08:12:23.939Z,87.50
2019-04-26T08:15:29.889Z,87.60
2019-04-26T08:18:15.231Z,86.80
2019-04-26T08:20:54.358Z,87.50
2019-04-26T08:23:39.619Z,87.20
2019-04-26T08:26:09.147Z,86.10
2019-04-26T08:31:23.200Z,86.40
2019-04-26T08:33:59.987Z,86.40
2019-04-26T08:36:36.796Z,85.20
2019-04-26T08:39:18.368Z,83.50
2019-04-26T08:41:51.432Z,83.50
2019-04-26T08:44:44.413Z,82.30
2019-04-26T08:47:29.367Z,83.00
2019-04-26T08:50:09.746Z,82.00
2019-04-26T08:52:40.477Z,82.00
2019-04-26T08:55:12.731Z,80.20
2019-04-26T08:57:45.747Z,80.50
2019-04-26T09:00:28.169Z,80.40
2019-04-26T09:03:12.970Z,78.60
2019-04-26T09:06:04.707Z,78.60
2019-04-26T09:08:43.618Z,80.40
2019-04-26T09:11:25.395Z,79.00
2019-04-26T09:13:51.898Z,77.60
2019-04-26T09:16:23.105Z,77.40
2019-04-26T09:18:59.386Z,77.10
2019-04-26T09:21:43.677Z,74.50
2019-04-26T09:24:35.132Z,74.70
2019-04-26T09:27:20.920Z,73.70
2019-04-26T09:30:00.599Z,73.80
2019-04-26T09:32:37.951Z,71.70
2019-04-26T09:35:11.314Z,72.30
2019-04-26T09:37:40.146Z,69.20
2019-04-26T09:40:25.647Z,70.80
2019-04-26T09:43:06.359Z,68.70
2019-04-26T09:45:55.597Z,68.70
2019-04-26T09:48:31.855Z,67.60
2019-04-26T09:51:02.431Z,68.20
2019-04-26T09:53:32.892Z,66.50
2019-04-26T09:56:03.154Z,66.60
2019-04-26T09:58:33.128Z,64.90
2019-04-26T10:01:06.074Z,65.30
2019-04-26T10:03:35.185Z,65.20
2019-04-26T10:06:08.058Z,64.10
2019-04-26T10:08:37.505Z,63.30
2019-04-26T10:11:10.843Z,63.10
2019-04-26T10:13:56.544Z,60.50
2019-04-26T10:16:42.216Z,61.70
2019-04-26T10:19:16.733Z,58.40
2019-04-26T10:21:46.900Z,57.70
2019-04-26T10:24:17.105Z,57.10
2019-04-26T10:26:47.263Z,56.10
2019-04-26T10:29:17.456Z,55.50
2019-04-26T10:31:47.550Z,53.60
2019-04-26T10:34:21.295Z,54.60
2019-04-26T10:36:51.235Z,51.80
2019-04-26T10:39:22.327Z,50.50
2019-04-26T10:41:52.564Z,49.20
2019-04-26T10:44:23.067Z,48.00
2019-04-26T10:46:55.709Z,48.60
2019-04-26T10:49:45.422Z,45.60
2019-04-26T10:52:31.147Z,45.60
2019-04-26T10:55:16.025Z,45.50
2019-04-26T10:57:46.651Z,45.90
2019-04-26T11:00:24.988Z,43.90
2019-04-26T11:02:55.164Z,43.10
2019-04-26T11:05:36.856Z,43.00
2019-04-26T11:08:07.003Z,41.10
2019-04-26T11:10:47.918Z,38.90
2019-04-26T11:13:09.665Z,38.80
2019-04-26T11:15:41.933Z,35.50
2019-04-26T11:18:12.332Z,33.50
2019-04-26T11:20:45.698Z,32.60
2019-04-26T11:23:15.666Z,33.90
2019-04-26T11:25:45.949Z,32.50
2019-04-26T11:28:17.240Z,32.50
2019-04-26T11:30:48.082Z,31.60
2019-04-26T11:33:19.677Z,30.20
2019-04-26T11:35:51.010Z,29.40
2019-04-26T11:38:21.823Z,29.60
2019-04-26T11:41:05.742Z,28.60
2019-04-26T11:43:25.846Z,28.40
2019-04-26T11:46:04.306Z,28.00
2019-04-26T11:48:29.209Z,27.20
2019-04-26T11:50:59.708Z,27.60
2019-04-26T11:53:30.014Z,27.40
2019-04-26T11:56:04.162Z,28.60
2019-04-26T11:58:32.030Z,29.00
2019-04-26T12:01:03.956Z,30.00
2019-04-26T12:06:14.253Z,31.10
2019-04-26T12:11:18.255Z,32.20
2019-04-26T12:16:14.705Z,33.80
2019-04-26T12:18:45.707Z,35.20
2019-04-26T12:21:14.578Z,35.50
2019-04-26T12:23:44.791Z,37.20
2019-04-26T12:28:43.819Z,37.30
2019-04-26T12:31:15.176Z,37.50
2019-04-26T12:33:45.206Z,36.80
2019-04-26T12:36:15.704Z,36.70
2019-04-26T12:38:43.475Z,36.10
2019-04-26T12:41:17.227Z,36.30
2019-04-26T12:43:45.796Z,34.80
2019-04-26T12:46:14.310Z,34.70
2019-04-26T12:48:46.059Z,35.50
2019-04-26T12:51:14.695Z,35.90
2019-04-26T12:53:44.970Z,36.30
2019-04-26T12:56:15.281Z,34.30
2019-04-26T12:58:45.589Z,35.80
2019-04-26T13:01:16.020Z,37.40
2019-04-26T13:06:14.918Z,34.80
2019-04-26T13:08:47.242Z,35.50
2019-04-26T13:11:15.448Z,34.30
2019-04-26T13:13:52.259Z,33.60
2019-04-26T13:16:21.829Z,34.90
2019-04-26T13:18:51.912Z,34.40
2019-04-26T13:21:22.014Z,36.50
2019-04-26T13:23:51.396Z,35.60
2019-04-26T13:26:22.844Z,34.80
2019-04-26T13:31:20.040Z,35.70
2019-04-26T13:33:50.164Z,36.30
2019-04-26T13:36:17.845Z,36.30
2019-04-26T13:38:48.156Z,33.90
2019-04-26T13:43:46.804Z,37.10
2019-04-26T13:46:34.065Z,37.30
2019-04-26T13:49:14.276Z,37.60
2019-04-26T13:51:43.069Z,36.20
2019-04-26T13:54:16.521Z,38.30
2019-04-26T13:59:13.247Z,39.00
2019-04-26T14:01:46.614Z,38.00
2019-04-26T14:04:16.345Z,37.80
2019-04-26T14:06:47.038Z,37.50
2019-04-26T14:09:15.862Z,38.20
2019-04-26T14:11:46.756Z,39.10
2019-04-26T14:16:47.554Z,37.60
2019-04-26T14:19:18.935Z,39.30
2019-04-26T14:21:46.936Z,39.30
2019-04-26T14:27:06.190Z,39.60
2019-04-26T14:32:07.088Z,38.90
2019-04-26T14:34:40.347Z,39.20
2019-04-26T14:37:11.177Z,38.40
2019-04-26T14:39:50.341Z,38.50
2019-04-26T14:42:09.706Z,38.00
2019-04-26T14:44:49.310Z,38.10
2019-04-26T14:49:43.196Z,38.70
2019-04-26T14:52:14.689Z,39.30
2019-04-26T14:54:46.161Z,38.80
2019-04-26T14:57:24.482Z,39.30
2019-04-26T15:07:58.260Z,39.40
2019-04-26T15:13:14.222Z,40.20
2019-04-26T15:18:02.949Z,39.30
2019-04-26T15:20:39.112Z,39.70
2019-04-26T15:23:09.228Z,40.40
2019-04-26T15:25:41.434Z,41.40
2019-04-26T15:28:11.964Z,40.60
2019-04-26T15:30:46.739Z,41.40
2019-04-26T15:33:14.014Z,42.20
2019-04-26T15:35:49.439Z,42.20
2019-04-26T15:43:53.967Z,42.20
2019-04-26T15:46:48.291Z,41.80
2019-04-26T15:49:29.439Z,44.20
2019-04-26T15:54:25.768Z,42.60
2019-04-26T15:56:56.195Z,44.00
2019-04-26T15:59:25.533Z,44.10
2019-04-26T16:01:56.773Z,44.70
2019-04-26T16:04:24.770Z,45.50
2019-04-26T16:06:55.408Z,44.40
2019-04-26T16:09:26.167Z,45.00
2019-04-26T16:14:26.437Z,45.00
2019-04-26T16:16:52.992Z,45.30
2019-04-26T16:19:26.680Z,44.80
2019-04-26T16:21:56.345Z,43.60
2019-04-26T16:24:27.802Z,43.20
2019-04-26T16:26:58.742Z,43.30
2019-04-26T16:29:26.421Z,42.80
2019-04-26T16:34:47.636Z,42.10
2019-04-26T16:37:21.682Z,42.90
2019-04-26T16:39:48.813Z,44.60
2019-04-26T16:42:19.623Z,45.60
2019-04-26T16:44:48.259Z,46.10
2019-04-26T16:47:17.830Z,46.10
2019-04-26T16:49:48.107Z,46.80
2019-04-26T16:52:17.637Z,48.10
2019-04-26T16:54:48.167Z,49.00
2019-04-26T16:59:49.167Z,49.70
2019-04-26T17:02:25.522Z,50.40
2019-04-26T17:04:53.255Z,50.90
2019-04-26T17:07:27.301Z,51.00
2019-04-26T17:09:58.888Z,52.50
2019-04-26T17:12:26.241Z,52.70
2019-04-26T17:15:17.474Z,52.80
2019-04-26T17:17:50.418Z,54.40
2019-04-26T17:20:20.087Z,54.80
2019-04-26T17:23:08.604Z,55.60
2019-04-26T17:26:02.095Z,56.50
2019-04-26T17:28:33.661Z,56.50
2019-04-26T17:31:05.616Z,57.70
2019-04-26T17:33:36.245Z,58.10
2019-04-26T17:36:11.483Z,58.50
2019-04-26T17:38:42.000Z,59.60
2019-04-26T17:41:13.814Z,60.00
2019-04-26T17:43:47.553Z,59.70
2019-04-26T17:46:18.277Z,60.30
2019-04-26T17:48:50.754Z,60.90
2019-04-26T17:51:23.301Z,61.40
2019-04-26T17:54:20.387Z,62.40
2019-04-26T17:58:54.580Z,64.50
2019-04-26T18:03:55.820Z,64.40
2019-04-26T18:06:29.857Z,64.70
2019-04-26T18:08:55.185Z,65.30
2019-04-26T18:11:26.126Z,65.60
2019-04-26T18:16:29.270Z,66.70
2019-04-26T18:19:15.703Z,67.40
2019-04-26T18:24:23.467Z,68.60
2019-04-26T18:26:59.021Z,69.30
2019-04-26T18:29:29.311Z,69.80
2019-04-26T18:32:03.609Z,70.30
2019-04-26T18:34:36.775Z,70.90
2019-04-26T18:37:07.411Z,71.20
2019-04-26T18:39:36.661Z,71.70
2019-04-26T18:42:09.381Z,72.30
2019-04-26T18:47:20.410Z,73.90
2019-04-26T18:49:46.038Z,74.70
2019-04-26T18:52:19.443Z,75.40
2019-04-26T18:57:17.238Z,77.10
2019-04-26T18:59:51.335Z,79.10
2019-04-26T19:02:18.747Z,79.70
2019-04-26T19:04:49.864Z,81.70
2019-04-26T19:07:17.620Z,83.70
2019-04-26T19:09:58.740Z,86.60
2019-04-26T19:12:23.374Z,88.60
2019-04-26T19:15:11.543Z,89.60
2019-04-26T19:17:39.391Z,90.00
2019-04-26T19:20:19.556Z,90.30
2019-04-26T19:23:00.993Z,90.50
2019-04-26T19:25:29.904Z,90.60
2019-04-26T19:28:04.475Z,91.00
2019-04-26T19:30:33.234Z,90.80
2019-04-26T19:33:02.053Z,90.70
2019-04-26T19:35:34.142Z,90.50
2019-04-26T19:38:03.247Z,90.30
2019-04-26T19:40:46.421Z,90.40
2019-04-26T19:43:12.625Z,90.40
2019-04-26T19:45:53.502Z,90.50
2019-04-26T19:48:22.965Z,90.60
2019-04-26T19:51:15.045Z,90.80
2019-04-26T19:56:31.517Z,91.00
2019-04-26T20:01:43.878Z,91.40
2019-04-26T20:04:14.369Z,91.60
2019-04-26T20:06:55.329Z,91.70
2019-04-26T20:09:26.684Z,91.90
2019-04-26T20:12:02.513Z,92.00
2019-04-26T20:14:50.376Z,92.20
2019-04-26T20:17:19.971Z,92.30
2019-04-26T20:19:56.908Z,92.40
2019-04-26T20:24:57.449Z,93.10
2019-04-26T20:29:58.914Z,93.60
2019-04-26T20:35:26.747Z,93.80
2019-04-26T20:37:56.332Z,93.60
2019-04-26T20:40:28.783Z,94.00
2019-04-26T20:43:05.705Z,94.20
2019-04-26T20:45:41.302Z,94.30
2019-04-26T20:48:06.610Z,94.50
2019-04-26T20:50:37.421Z,94.50
2019-04-26T20:53:07.129Z,94.60
2019-04-26T20:55:39.637Z,94.60
2019-04-26T21:00:37.816Z,94.90
2019-04-26T21:03:21.010Z,95.00
2019-04-26T21:05:46.083Z,95.30
2019-04-26T21:08:14.055Z,96.00
2019-04-26T21:13:32.485Z,96.20
2019-04-26T21:16:10.378Z,96.10
2019-04-26T21:18:40.053Z,96.30
2019-04-26T21:21:10.635Z,96.30
2019-04-26T21:23:40.129Z,96.40
2019-04-26T21:26:29.831Z,96.50
2019-04-26T21:29:21.774Z,96.50
2019-04-26T21:32:03.494Z,96.40
2019-04-26T21:34:35.663Z,96.50
2019-04-26T21:37:24.911Z,96.50
2019-04-26T21:40:16.893Z,96.90
2019-04-26T21:43:00.697Z,96.80
2019-04-26T21:45:31.060Z,97.20
2019-04-26T21:48:02.650Z,97.00
2019-04-26T21:50:38.641Z,97.10
2019-04-26T21:53:07.127Z,97.00
2019-04-26T21:55:38.770Z,97.20
2019-04-26T21:58:06.749Z,97.10
2019-04-26T22:00:55.963Z,96.90
2019-04-26T22:03:30.043Z,97.30
2019-04-26T22:05:57.716Z,97.40
2019-04-26T22:08:31.175Z,97.40
2019-04-26T22:10:58.894Z,97.50
2019-04-26T22:13:37.313Z,97.50
2019-04-26T22:16:07.765Z,97.60
2019-04-26T22:18:56.809Z,97.40
2019-04-26T22:21:30.163Z,97.60
2019-04-26T22:26:34.083Z,97.80
2019-04-26T22:29:08.065Z,97.70
2019-04-26T22:31:37.901Z,97.60
2019-04-26T22:34:08.886Z,97.70
2019-04-26T22:36:37.681Z,97.80
2019-04-26T22:39:14.256Z,97.70
2019-04-26T22:41:44.411Z,98.00
2019-04-26T22:49:45.567Z,98.30
2019-04-26T22:52:16.468Z,98.20
2019-04-26T22:57:16.181Z,98.00
2019-04-26T22:59:50.183Z,97.80
2019-04-26T23:02:18.469Z,98.20
2019-04-26T23:04:48.882Z,98.10
2019-04-26T23:07:18.430Z,98.10
2019-04-26T23:09:51.887Z,98.40
2019-04-26T23:12:24.961Z,98.30
2019-04-26T23:15:03.203Z,98.30
2019-04-26T23:17:34.802Z,98.40
2019-04-26T23:20:25.262Z,98.50
2019-04-26T23:23:00.465Z,98.50
2019-04-26T23:25:27.717Z,98.90
2019-04-26T23:27:58.370Z,98.90
2019-04-26T23:32:56.851Z,98.90
2019-04-26T23:35:26.965Z,98.90
2019-04-26T23:37:56.505Z,99.00
2019-04-26T23:40:29.011Z,99.10
2019-04-26T23:45:27.669Z,98.90
2019-04-26T23:47:57.841Z,98.80
2019-04-26T23:52:54.723Z,99.20
2019-04-26T23:55:24.804Z,99.10
2019-04-26T23:57:53.446Z,98.80
